Time;durP1;ratioP1;P1;durP2;ratioP2;P2;SDS_P1;SDS_P2;PMS_P1;PMS_P2;Temp;Humidity;BMP_temperature;BMP_pressure;BME280_temperature;BME280_humidity;BME280_pressure;Samples;Min_cycle;Max_cycle;Signal;HPM_P1;HPM_P2
2024/01/20 00:00:35;;;;;;;1.30;1.30;;;;;;;-2.92;82.35;99694.34;6166025;23;20117;-91
2024/01/20 00:03:01;;;;;;;1.20;1.20;;;;;;;-2.91;83.10;99697.88;6158590;23;20009;-90
2024/01/20 00:05:27;;;;;;;1.20;1.20;;;;;;;-2.91;82.59;99687.41;6156445;23;20096;-90
2024/01/20 00:07:52;;;;;;;1.20;1.20;;;;;;;-3.04;82.79;99687.00;6158578;23;20014;-90
2024/01/20 00:10:18;;;;;;;1.20;1.20;;;;;;;-3.42;83.33;99685.09;6155849;23;20032;-91
2024/01/20 00:12:44;;;;;;;1.20;1.20;;;;;;;-3.52;83.89;99681.44;6156143;23;20049;-91
2024/01/20 00:15:09;;;;;;;1.20;1.20;;;;;;;-3.51;83.69;99692.00;6140114;23;20328;-91
2024/01/20 00:17:36;;;;;;;1.27;1.27;;;;;;;-3.54;83.48;99685.59;6149839;23;20014;-90
2024/01/20 00:20:02;;;;;;;1.30;1.30;;;;;;;-3.34;83.64;99680.63;6160143;23;20013;-90
2024/01/20 00:22:28;;;;;;;1.30;1.30;;;;;;;-3.44;83.26;99690.94;6185233;23;20021;-89
2024/01/20 00:24:53;;;;;;;1.20;1.20;;;;;;;-3.34;83.04;99682.31;6135964;23;20088;-90
2024/01/20 00:27:19;;;;;;;1.27;1.27;;;;;;;-3.41;83.83;99683.41;6160187;23;20009;-90
2024/01/20 00:29:44;;;;;;;1.20;1.20;;;;;;;-3.11;83.86;99689.03;6133719;23;20014;-90
2024/01/20 00:32:11;;;;;;;1.17;1.17;;;;;;;-3.25;83.29;99697.19;6135062;23;20005;-91
2024/01/20 00:34:37;;;;;;;1.30;1.30;;;;;;;-3.22;83.59;99704.38;6132562;23;20092;-90
2024/01/20 00:37:03;;;;;;;1.30;1.30;;;;;;;-3.11;83.28;99699.47;6157840;23;20063;-90
2024/01/20 00:39:30;;;;;;;1.20;1.20;;;;;;;-3.14;83.10;99693.00;6132177;23;20017;-90
2024/01/20 00:41:56;;;;;;;1.20;1.20;;;;;;;-3.25;83.59;99684.16;6134361;23;20018;-89
2024/01/20 00:44:23;;;;;;;1.20;1.20;;;;;;;-3.30;83.33;99682.78;6134874;23;20021;-90
2024/01/20 00:46:48;;;;;;;1.20;1.20;;;;;;;-3.41;83.73;99678.19;6159845;23;20020;-90
2024/01/20 00:49:13;;;;;;;1.20;1.20;;;;;;;-3.39;84.54;99676.66;6158725;23;20080;-90
2024/01/20 00:51:39;;;;;;;1.20;1.20;;;;;;;-3.26;84.01;99677.06;6158624;23;20016;-89
2024/01/20 00:54:06;;;;;;;1.20;1.20;;;;;;;-3.44;84.18;99690.94;6134312;23;20108;-89
2024/01/20 00:56:34;;;;;;;1.30;1.30;;;;;;;-3.31;84.52;99691.34;6156779;23;20017;-90
2024/01/20 00:59:00;;;;;;;1.13;1.13;;;;;;;-3.32;83.82;99697.34;6159355;23;20096;-90
2024/01/20 01:01:25;;;;;;;1.20;1.20;;;;;;;-3.47;83.79;99703.66;6181857;23;20005;-90
2024/01/20 01:03:50;;;;;;;1.20;1.20;;;;;;;-3.59;84.48;99702.44;6133128;23;20017;-91
2024/01/20 01:06:16;;;;;;;1.20;1.20;;;;;;;-3.44;84.57;99704.91;6158034;23;20005;-89
2024/01/20 01:08:44;;;;;;;1.27;1.27;;;;;;;-3.54;84.25;99703.84;6158502;23;20036;-88
2024/01/20 01:11:10;;;;;;;1.20;1.20;;;;;;;-3.61;84.32;99711.03;6157761;23;20395;-89
2024/01/20 01:13:37;;;;;;;1.20;1.20;;;;;;;-3.64;84.40;99720.22;6157512;23;20018;-90
2024/01/20 01:16:06;;;;;;;1.20;1.20;;;;;;;-3.51;84.51;99712.88;6157396;23;20103;-88
2024/01/20 01:18:33;;;;;;;1.25;1.25;;;;;;;-3.61;84.76;99717.94;6133443;23;20501;-88
2024/01/20 01:20:58;;;;;;;1.30;1.30;;;;;;;-3.55;84.77;99717.63;6157905;23;20571;-90
2024/01/20 01:23:24;;;;;;;1.23;1.23;;;;;;;-3.53;84.23;99716.13;6132622;23;20029;-88
2024/01/20 01:25:49;;;;;;;1.30;1.30;;;;;;;-3.70;84.49;99717.03;6157823;23;20456;-89
2024/01/20 01:28:16;;;;;;;1.30;1.30;;;;;;;-3.67;84.87;99723.47;6157502;23;20430;-88
2024/01/20 01:30:41;;;;;;;1.33;1.33;;;;;;;-3.69;84.86;99713.63;6157421;23;20084;-89
2024/01/20 01:33:07;;;;;;;1.20;1.20;;;;;;;-3.72;85.03;99723.78;6156564;23;20087;-89
2024/01/20 01:35:32;;;;;;;1.30;1.30;;;;;;;-3.55;84.49;99718.53;6157399;23;20027;-88
2024/01/20 01:37:58;;;;;;;1.30;1.30;;;;;;;-3.65;85.13;99724.53;6132769;23;20064;-89
2024/01/20 01:40:25;;;;;;;1.20;1.20;;;;;;;-3.74;84.62;99726.22;6158254;23;20096;-88
2024/01/20 01:42:57;;;;;;;1.30;1.30;;;;;;;-3.67;85.45;99725.16;6181313;23;20017;-88
2024/01/20 01:45:24;;;;;;;1.30;1.30;;;;;;;-3.56;85.00;99734.97;6159439;23;20081;-88
2024/01/20 01:47:51;;;;;;;1.17;1.17;;;;;;;-3.70;84.54;99728.38;6157023;23;20002;-89
2024/01/20 01:50:17;;;;;;;;;;;;;;;-3.59;84.88;99737.28;6132679;23;20014;-88
2024/01/20 01:52:42;;;;;;;1.30;1.30;;;;;;;-3.46;84.78;99742.94;6156021;23;19908;-88
2024/01/20 01:55:09;;;;;;;1.20;1.20;;;;;;;-3.61;84.66;99739.72;6157640;23;20029;-89
2024/01/20 01:57:35;;;;;;;1.30;1.30;;;;;;;-3.56;85.20;99732.34;6156604;23;20013;-89
2024/01/20 02:00:04;;;;;;;1.20;1.20;;;;;;;-3.45;85.03;99734.38;6157236;23;20017;-89
2024/01/20 02:02:49;;;;;;;1.20;1.20;;;;;;;-3.61;85.39;99738.81;6164174;23;20017;-88
2024/01/20 02:05:16;;;;;;;1.20;1.20;;;;;;;-3.55;85.30;99734.19;6163807;23;20017;-88
2024/01/20 02:07:43;;;;;;;1.30;1.30;;;;;;;-3.50;85.11;99726.81;6171836;23;20023;-89
2024/01/20 02:10:10;;;;;;;1.30;1.30;;;;;;;-3.49;85.00;99724.41;6167645;23;20015;-88
2024/01/20 02:12:35;;;;;;;1.30;1.30;;;;;;;-3.64;85.40;99729.00;6138103;23;20242;-89
2024/01/20 02:15:01;;;;;;;1.20;1.20;;;;;;;-3.61;84.64;99728.38;6138128;23;20012;-89
2024/01/20 02:17:27;;;;;;;1.20;1.20;;;;;;;-3.55;85.29;99728.97;6138704;23;20037;-89
2024/01/20 02:19:53;;;;;;;1.30;1.30;;;;;;;-3.50;84.53;99724.22;6114059;23;20017;-89
2024/01/20 02:22:18;;;;;;;1.20;1.20;;;;;;;-3.42;84.45;99724.22;6138434;23;20076;-88
2024/01/20 02:24:49;;;;;;;1.20;1.20;;;;;;;-3.39;84.92;99719.31;6139364;23;20016;-89
2024/01/20 02:27:18;;;;;;;1.20;1.20;;;;;;;-3.63;84.91;99724.72;6165406;23;20062;-89
2024/01/20 02:29:45;;;;;;;1.30;1.30;;;;;;;-3.75;84.93;99731.28;6142921;23;20017;-90
2024/01/20 02:32:10;;;;;;;1.30;1.30;;;;;;;-3.68;85.37;99729.47;6165355;23;20044;-90
2024/01/20 02:34:37;;;;;;;1.23;1.23;;;;;;;-3.65;85.13;99726.22;6162360;23;20037;-90
2024/01/20 02:37:04;;;;;;;1.20;1.20;;;;;;;-3.63;85.15;99727.31;6169653;23;20070;-91
2024/01/20 02:39:31;;;;;;;1.20;1.20;;;;;;;-3.61;85.33;99723.16;6177247;23;20021;-89
2024/01/20 02:41:58;;;;;;;1.20;1.20;;;;;;;-3.69;85.50;99726.69;6177355;23;20021;-92
2024/01/20 02:44:23;;;;;;;1.20;1.20;;;;;;;-3.84;86.10;99735.56;6178481;23;20050;-89
2024/01/20 02:46:52;;;;;;;1.30;1.30;;;;;;;-3.79;86.29;99726.53;6145303;23;20009;-91
2024/01/20 02:49:18;;;;;;;1.20;1.20;;;;;;;-3.87;86.33;99734.50;6171729;23;20013;-90
2024/01/20 02:51:43;;;;;;;1.30;1.30;;;;;;;-3.87;86.37;99741.41;6147867;23;20017;-90
2024/01/20 02:54:09;;;;;;;1.20;1.20;;;;;;;-3.87;85.89;99741.41;6169786;23;20014;-90
2024/01/20 02:56:34;;;;;;;1.30;1.30;;;;;;;-3.80;86.18;99748.16;6177769;23;20014;-90
2024/01/20 02:59:01;;;;;;;1.30;1.30;;;;;;;-3.88;86.31;99750.94;6176334;23;20012;-90
2024/01/20 03:01:26;;;;;;;1.20;1.20;;;;;;;-3.83;86.43;99758.25;6149446;23;20108;-90
2024/01/20 03:03:52;;;;;;;1.30;1.30;;;;;;;-3.98;86.20;99758.56;6142637;23;20096;-89
2024/01/20 03:06:17;;;;;;;1.27;1.27;;;;;;;-4.00;86.35;99757.50;6168763;23;20009;-90
2024/01/20 03:08:43;;;;;;;1.30;1.30;;;;;;;-3.95;86.36;99764.09;6166184;23;20028;-90
2024/01/20 03:11:08;;;;;;;1.30;1.30;;;;;;;-3.82;85.90;99766.25;6162724;23;20017;-89
2024/01/20 03:13:34;;;;;;;1.20;1.20;;;;;;;-3.80;85.85;99772.53;6160060;23;20016;-90
2024/01/20 03:15:59;;;;;;;1.30;1.30;;;;;;;-3.80;85.80;99775.16;6134712;23;20018;-90
2024/01/20 03:18:25;;;;;;;1.30;1.30;;;;;;;-3.84;85.21;99773.00;6133129;23;20017;-89
2024/01/20 03:20:50;;;;;;;1.20;1.20;;;;;;;-3.81;85.79;99785.44;6132107;23;20013;-90
2024/01/20 03:23:16;;;;;;;1.30;1.30;;;;;;;-3.86;85.79;99782.34;6141398;23;20231;-90
2024/01/20 03:25:41;;;;;;;1.30;1.30;;;;;;;-3.82;85.62;99778.38;6146281;23;20018;-90
2024/01/20 03:28:07;;;;;;;1.30;1.30;;;;;;;-3.94;86.13;99770.22;6158008;23;19997;-90
2024/01/20 03:30:33;;;;;;;1.20;1.20;;;;;;;-3.87;86.13;99771.00;6132249;23;20013;-90
2024/01/20 03:33:00;;;;;;;1.30;1.30;;;;;;;-3.76;85.91;99773.78;6156399;23;20041;-90
2024/01/20 03:35:27;;;;;;;1.20;1.20;;;;;;;-3.73;85.26;99789.75;6131624;23;20491;-89
2024/01/20 03:37:53;;;;;;;;;;;;;;;-3.73;84.74;99785.44;6131352;23;20111;-89
2024/01/20 03:40:18;;;;;;;1.30;1.30;;;;;;;-3.71;84.52;99793.41;6154866;23;19912;-89
2024/01/20 03:42:44;;;;;;;1.30;1.30;;;;;;;-3.77;84.74;99787.59;6130101;23;20013;-90
2024/01/20 03:45:09;;;;;;;1.27;1.27;;;;;;;-3.88;84.79;99774.38;6126789;23;20041;-90
2024/01/20 03:47:35;;;;;;;1.30;1.30;;;;;;;-3.89;85.04;99776.81;6154037;23;20017;-90
2024/01/20 03:50:03;;;;;;;1.20;1.20;;;;;;;-3.76;85.19;99773.78;6155754;23;20018;-89
2024/01/20 03:52:30;;;;;;;1.30;1.30;;;;;;;-3.77;85.27;99767.66;6155420;23;20009;-88
2024/01/20 03:54:56;;;;;;;1.20;1.20;;;;;;;-3.84;85.01;99765.16;6130698;23;20024;-88
2024/01/20 03:57:22;;;;;;;1.30;1.30;;;;;;;-3.82;85.06;99758.44;6156483;23;20419;-89
2024/01/20 03:59:48;;;;;;;1.30;1.30;;;;;;;-3.63;85.27;99763.81;6155000;23;20459;-89
2024/01/20 04:02:14;;;;;;;1.20;1.20;;;;;;;-3.56;84.91;99768.88;6129550;23;20006;-89
2024/01/20 04:04:39;;;;;;;1.20;1.20;;;;;;;-3.58;84.24;99775.63;6129573;23;20005;-89
2024/01/20 04:07:05;;;;;;;1.20;1.20;;;;;;;-3.56;84.49;99778.38;6129994;23;20094;-88
2024/01/20 04:09:31;;;;;;;1.20;1.20;;;;;;;-3.75;84.52;99775.63;6129676;23;20005;-89
2024/01/20 04:11:57;;;;;;;1.20;1.20;;;;;;;-3.77;84.64;99771.94;6129437;23;20426;-88
2024/01/20 04:14:23;;;;;;;1.30;1.30;;;;;;;-3.74;85.18;99778.38;6155399;23;20024;-88
2024/01/20 04:16:50;;;;;;;1.20;1.20;;;;;;;-3.65;84.86;99784.50;6154156;23;20377;-90
2024/01/20 04:19:15;;;;;;;1.20;1.20;;;;;;;-3.56;84.10;99787.13;6129650;23;20002;-88
2024/01/20 04:21:43;;;;;;;1.20;1.20;;;;;;;-3.77;84.59;99790.19;6153890;23;20017;-89
2024/01/20 04:24:10;;;;;;;;;;;;;;;-3.69;84.63;99787.59;6105838;23;20014;-88
2024/01/20 04:26:35;;;;;;;;;;;;;;;-3.55;83.70;99790.66;6131466;23;19914;-89
2024/01/20 04:29:02;;;;;;;1.20;1.20;;;;;;;-3.64;83.67;99786.38;6153954;23;19936;-89
2024/01/20 04:31:29;;;;;;;1.20;1.20;;;;;;;-3.73;83.81;99794.97;6128525;23;20017;-89
2024/01/20 04:33:57;;;;;;;1.30;1.30;;;;;;;-3.71;84.32;99783.91;6153463;23;20013;-89
2024/01/20 04:36:23;;;;;;;1.30;1.30;;;;;;;-3.87;84.50;99791.88;6155019;23;20283;-89
2024/01/20 04:38:48;;;;;;;1.20;1.20;;;;;;;-3.79;84.85;99802.13;6153801;23;20020;-87
2024/01/20 04:41:14;;;;;;;1.30;1.30;;;;;;;-3.66;84.96;99807.84;6129002;23;20021;-90
2024/01/20 04:43:39;;;;;;;1.23;1.23;;;;;;;-3.56;84.26;99801.84;6129552;23;20037;-89
2024/01/20 04:46:05;;;;;;;1.20;1.20;;;;;;;-3.62;84.05;99812.59;6154272;23;20083;-89
2024/01/20 04:48:31;;;;;;;1.20;1.20;;;;;;;-3.67;83.95;99812.13;6154645;23;20017;-89
2024/01/20 04:50:59;;;;;;;1.20;1.20;;;;;;;-3.71;83.56;99816.88;6105984;23;20333;-88
2024/01/20 04:53:25;;;;;;;1.30;1.30;;;;;;;-3.87;83.64;99815.31;6129159;23;20121;-89
2024/01/20 04:55:54;;;;;;;1.30;1.30;;;;;;;-3.76;83.48;99812.88;6153772;23;20006;-89
2024/01/20 04:58:19;;;;;;;1.20;1.20;;;;;;;-3.71;83.07;99811.66;6129091;23;20022;-89
2024/01/20 05:00:45;;;;;;;1.20;1.20;;;;;;;-3.75;83.76;99802.59;6153930;23;20001;-89
2024/01/20 05:03:11;;;;;;;1.30;1.30;;;;;;;-3.76;83.54;99802.47;6129032;23;20021;-89
2024/01/20 05:05:39;;;;;;;1.20;1.20;;;;;;;-3.88;83.74;99803.06;6127526;23;20072;-89
2024/01/20 05:08:04;;;;;;;1.20;1.20;;;;;;;-3.80;84.20;99815.94;6154918;23;20006;-89
2024/01/20 05:10:30;;;;;;;1.30;1.30;;;;;;;-3.80;83.39;99813.34;6154091;23;20307;-90
2024/01/20 05:12:55;;;;;;;1.20;1.20;;;;;;;-3.90;83.89;99812.41;6154877;23;20803;-90
2024/01/20 05:15:22;;;;;;;1.30;1.30;;;;;;;-3.80;83.63;99805.50;6130498;23;20040;-89
2024/01/20 05:17:48;;;;;;;1.23;1.23;;;;;;;-3.90;84.15;99806.25;6155407;23;20350;-89
2024/01/20 05:20:14;;;;;;;1.30;1.30;;;;;;;-3.94;84.57;99814.53;6154933;23;20009;-89
2024/01/20 05:22:41;;;;;;;1.30;1.30;;;;;;;-3.86;84.34;99808.44;6155219;23;20010;-91
2024/01/20 05:25:06;;;;;;;1.20;1.20;;;;;;;-3.92;84.43;99813.94;6130873;23;20018;-89
2024/01/20 05:27:32;;;;;;;1.23;1.23;;;;;;;-3.91;85.11;99815.78;6131825;23;20066;-90
2024/01/20 05:30:00;;;;;;;1.20;1.20;;;;;;;-3.95;84.58;99815.31;6157400;23;20014;-90
2024/01/20 05:32:26;;;;;;;1.30;1.30;;;;;;;-3.79;84.54;99820.38;6156543;23;20009;-90
2024/01/20 05:34:51;;;;;;;1.30;1.30;;;;;;;-3.75;84.39;99812.13;6132916;23;20021;-89
2024/01/20 05:37:17;;;;;;;1.20;1.20;;;;;;;-3.80;84.26;99815.94;6132325;23;20381;-89
2024/01/20 05:39:42;;;;;;;1.30;1.30;;;;;;;-3.87;84.51;99812.72;6130991;23;20017;-89
2024/01/20 05:42:08;;;;;;;1.27;1.27;;;;;;;-3.94;84.78;99819.75;6156615;23;20013;-89
2024/01/20 05:44:33;;;;;;;1.20;1.20;;;;;;;-3.81;85.05;99828.06;6132428;23;20052;-89
2024/01/20 05:47:00;;;;;;;1.20;1.20;;;;;;;-4.00;84.44;99837.38;6133105;23;20661;-89
2024/01/20 05:49:27;;;;;;;1.30;1.30;;;;;;;-3.98;84.95;99833.22;6133659;23;20009;-89
2024/01/20 05:51:52;;;;;;;1.30;1.30;;;;;;;-3.89;84.71;99831.56;6134736;23;20101;-90
2024/01/20 05:54:17;;;;;;;1.30;1.30;;;;;;;-3.94;84.74;99841.50;6134004;23;20009;-90
2024/01/20 05:56:43;;;;;;;1.30;1.30;;;;;;;-3.84;84.09;99852.88;6155360;23;20008;-89
2024/01/20 05:59:10;;;;;;;1.30;1.30;;;;;;;-3.95;84.20;99865.75;6130885;23;20017;-90
2024/01/20 06:01:36;;;;;;;1.30;1.30;;;;;;;-3.84;84.18;99860.72;6152977;23;20092;-90
2024/01/20 06:04:04;;;;;;;1.20;1.20;;;;;;;-3.93;84.15;99855.47;6153324;23;20049;-89
2024/01/20 06:06:29;;;;;;;1.30;1.30;;;;;;;-3.91;84.42;99862.69;6128411;23;20084;-88
2024/01/20 06:08:55;;;;;;;1.20;1.20;;;;;;;-4.03;84.82;99860.50;6127749;23;20022;-89
2024/01/20 06:11:29;;;;;;;1.20;1.20;;;;;;;-4.03;84.65;99868.31;6151671;23;20017;-89
2024/01/20 06:13:59;;;;;;;1.23;1.23;;;;;;;-3.94;84.10;99864.97;6151445;23;20005;-89
2024/01/20 06:16:53;;;;;;;1.20;1.20;;;;;;;-3.94;84.11;99864.06;6126889;23;20516;-91
2024/01/20 06:19:22;;;;;;;1.20;1.20;;;;;;;-3.81;83.85;99867.16;6128913;23;20009;-90
2024/01/20 06:21:56;;;;;;;1.20;1.20;;;;;;;-3.70;84.10;99868.25;6129410;23;20013;-89
2024/01/20 06:27:19;;;;;;;1.20;1.20;;;;;;;-3.78;83.56;99869.19;6141341;23;20083;-90
2024/01/20 06:29:55;;;;;;;1.20;1.20;;;;;;;-3.81;83.89;99872.38;6127216;23;20453;-89
2024/01/20 06:35:43;;;;;;;1.30;1.30;;;;;;;-3.86;84.06;99884.03;6153471;23;20537;-88
2024/01/20 06:38:08;;;;;;;1.30;1.30;;;;;;;-4.02;84.60;99893.63;6129828;23;20012;-87
2024/01/20 06:40:34;;;;;;;1.30;1.30;;;;;;;-4.06;84.44;99894.06;6130376;23;20350;-90
2024/01/20 06:42:59;;;;;;;1.20;1.20;;;;;;;-4.18;84.75;99893.69;6153985;23;20044;-88
2024/01/20 06:45:25;;;;;;;1.30;1.30;;;;;;;-4.00;85.02;99895.63;6155764;23;20013;-89
2024/01/20 06:47:50;;;;;;;1.20;1.20;;;;;;;-4.04;84.70;99889.94;6131354;23;20009;-89
2024/01/20 06:50:16;;;;;;;1.20;1.20;;;;;;;-4.10;84.78;99892.81;6156441;23;20081;-88
2024/01/20 06:52:47;;;;;;;1.20;1.20;;;;;;;-4.17;85.20;99903.34;6131516;23;20041;-90
2024/01/20 06:55:13;;;;;;;1.20;1.20;;;;;;;-4.05;85.12;99902.03;6130937;23;20387;-89
2024/01/20 06:57:41;;;;;;;1.20;1.20;;;;;;;-4.01;84.85;99906.81;6155593;23;20020;-88
2024/01/20 07:00:08;;;;;;;1.27;1.27;;;;;;;-4.09;84.93;99912.91;6155624;23;20009;-89
2024/01/20 07:02:37;;;;;;;1.30;1.30;;;;;;;-4.21;85.14;99909.03;6131546;23;20050;-89
2024/01/20 07:05:05;;;;;;;1.30;1.30;;;;;;;-4.23;85.50;99910.53;6131146;23;20105;-89
2024/01/20 07:07:30;;;;;;;1.30;1.30;;;;;;;-4.19;85.41;99903.19;6157412;23;20060;-90
2024/01/20 07:09:57;;;;;;;1.30;1.30;;;;;;;-4.02;85.93;99906.66;6130612;23;20124;-90
2024/01/20 07:12:23;;;;;;;1.30;1.30;;;;;;;-3.93;85.17;99911.16;6130195;23;20013;-89
2024/01/20 07:14:48;;;;;;;1.25;1.25;;;;;;;-4.17;84.58;99924.19;6131936;23;20378;-89
2024/01/20 07:17:14;;;;;;;1.30;1.30;;;;;;;-4.18;84.54;99925.88;6157197;23;20012;-90
2024/01/20 07:19:39;;;;;;;1.30;1.30;;;;;;;-4.21;84.62;99936.00;6158320;23;20017;-90
2024/01/20 07:22:04;;;;;;;1.30;1.30;;;;;;;-3.99;84.22;99940.84;6136566;23;20009;-90
2024/01/20 07:24:30;;;;;;;1.30;1.30;;;;;;;-3.91;83.97;99935.69;6141178;23;20016;-89
2024/01/20 07:26:56;;;;;;;1.30;1.30;;;;;;;-3.80;83.61;99939.41;6162749;23;20363;-90
2024/01/20 07:29:22;;;;;;;1.30;1.30;;;;;;;-3.98;83.90;99942.69;6143021;23;20046;-89
2024/01/20 07:31:53;;;;;;;1.30;1.30;;;;;;;-3.99;83.66;99952.19;6159868;23;20144;-89
2024/01/20 07:34:19;;;;;;;1.20;1.20;;;;;;;-3.88;84.36;99955.91;6158282;23;20013;-90
2024/01/20 07:36:44;;;;;;;1.20;1.20;;;;;;;-3.94;84.25;99960.50;6130994;23;20056;-91
2024/01/20 07:39:16;;;;;;;1.20;1.20;;;;;;;-3.73;84.11;99961.84;6131906;23;20345;-92
2024/01/20 07:41:42;;;;;;;1.20;1.20;;;;;;;-4.16;84.15;99955.66;6157504;23;20025;-91
2024/01/20 07:44:10;;;;;;;1.30;1.30;;;;;;;-4.12;84.53;99959.47;6156776;23;20097;-91
2024/01/20 07:46:36;;;;;;;1.30;1.30;;;;;;;-4.13;83.90;99952.44;6131639;23;20738;-90
2024/01/20 07:49:01;;;;;;;1.30;1.30;;;;;;;-3.84;83.20;99949.34;6155305;23;20016;-91
2024/01/20 07:51:28;;;;;;;1.35;1.35;;;;;;;-3.79;82.51;99949.06;6154426;23;20032;-91
2024/01/20 07:53:54;;;;;;;1.20;1.20;;;;;;;-3.75;81.92;99956.44;6129447;23;20005;-91
2024/01/20 07:56:20;;;;;;;1.30;1.30;;;;;;;-3.77;82.26;99951.84;6153040;23;20025;-91
2024/01/20 07:58:45;;;;;;;1.20;1.20;;;;;;;-3.89;83.14;99949.78;6176634;23;20338;-91
2024/01/20 08:01:11;;;;;;;1.20;1.20;;;;;;;-3.81;83.19;99960.09;6128072;23;20025;-91
2024/01/20 08:03:36;;;;;;;1.30;1.30;;;;;;;-3.81;82.65;99961.03;6156817;23;20013;-92
2024/01/20 08:06:02;;;;;;;1.27;1.27;;;;;;;-3.82;82.70;99959.19;6165108;23;20186;-91
2024/01/20 08:08:27;;;;;;;1.30;1.30;;;;;;;-3.52;82.34;99957.91;6165468;23;20005;-92
2024/01/20 08:10:54;;;;;;;1.30;1.30;;;;;;;-3.37;81.36;99964.69;6166549;23;20024;-92
2024/01/20 08:13:20;;;;;;;1.20;1.20;;;;;;;-3.93;81.82;99967.53;6141406;23;20014;-91
2024/01/20 08:15:45;;;;;;;1.30;1.30;;;;;;;-3.59;81.80;99966.81;6138592;23;20096;-93
2024/01/20 08:18:12;;;;;;;1.30;1.30;;;;;;;-3.44;81.58;99963.16;6134256;23;20036;-92
2024/01/20 08:20:39;;;;;;;1.30;1.30;;;;;;;-3.43;80.49;99958.84;6159690;23;20002;-92
2024/01/20 08:23:06;;;;;;;1.30;1.30;;;;;;;-3.49;80.58;99959.16;6132637;23;20080;-92
2024/01/20 08:25:31;;;;;;;1.35;1.35;;;;;;;-3.58;81.12;99962.50;6156918;23;20017;-91
2024/01/20 08:27:57;;;;;;;1.30;1.30;;;;;;;-3.59;80.55;99977.22;6106017;23;20024;-91
2024/01/20 08:30:22;;;;;;;1.30;1.30;;;;;;;-3.64;80.99;99975.78;6154556;23;20009;-91
2024/01/20 08:32:47;;;;;;;1.30;1.30;;;;;;;-3.56;79.79;99977.53;6130117;23;20036;-92
2024/01/20 08:35:13;;;;;;;1.30;1.30;;;;;;;-3.88;80.40;99976.78;6144066;23;20361;-91
2024/01/20 08:37:38;;;;;;;1.30;1.30;;;;;;;-3.76;80.41;99987.56;6151586;23;20036;-90
2024/01/20 08:40:04;;;;;;;1.20;1.20;;;;;;;-3.81;81.00;99991.38;6135215;23;20010;-92
2024/01/20 08:42:30;;;;;;;1.30;1.30;;;;;;;-3.78;80.62;99995.25;6131563;23;20025;-90
2024/01/20 08:44:55;;;;;;;1.23;1.23;;;;;;;-4.04;81.63;99997.69;6153860;23;20068;-90
2024/01/20 08:47:21;;;;;;;1.30;1.30;;;;;;;-4.04;82.01;99999.38;6153595;23;20017;-89
2024/01/20 08:49:51;;;;;;;1.20;1.20;;;;;;;-4.16;82.74;100012.97;6153272;23;20335;-88
2024/01/20 08:52:17;;;;;;;1.30;1.30;;;;;;;-4.30;82.88;100013.19;6128573;23;20041;-90
2024/01/20 08:54:43;;;;;;;1.30;1.30;;;;;;;-4.33;83.33;100019.75;6153154;23;20028;-89
2024/01/20 08:57:12;;;;;;;1.30;1.30;;;;;;;-4.27;83.58;100021.31;6153374;23;20362;-89
2024/01/20 08:59:42;;;;;;;1.30;1.30;;;;;;;-4.19;83.54;100027.34;6154755;23;20013;-91
2024/01/20 09:02:07;;;;;;;1.30;1.30;;;;;;;-4.15;83.13;100029.53;6129803;23;20079;-90
2024/01/20 09:04:34;;;;;;;1.30;1.30;;;;;;;-4.02;82.43;100026.56;6154811;23;20092;-91
2024/01/20 09:07:00;;;;;;;1.40;1.40;;;;;;;-2.78;77.89;100018.53;6131128;23;20016;-94
2024/01/20 09:09:26;;;;;;;1.30;1.30;;;;;;;-1.73;74.67;100017.69;6156307;23;20014;-92
2024/01/20 09:11:55;;;;;;;1.30;1.30;;;;;;;-1.44;71.32;100008.31;6155448;23;20017;-92
2024/01/20 09:14:22;;;;;;;1.20;1.20;;;;;;;-1.08;71.65;100008.31;6177546;23;20080;-92
2024/01/20 09:16:48;;;;;;;1.20;1.20;;;;;;;-2.03;73.01;100010.38;6165848;23;20342;-91
2024/01/20 09:19:15;;;;;;;1.20;1.20;;;;;;;-1.44;72.73;100008.31;6153177;23;20017;-89
2024/01/20 09:21:44;;;;;;;1.20;1.20;;;;;;;0.29;65.55;99995.59;6132072;23;20012;-92
2024/01/20 09:24:10;;;;;;;1.20;1.20;;;;;;;0.61;64.75;99993.16;6130938;23;20024;-92
2024/01/20 09:26:35;;;;;;;1.20;1.20;;;;;;;0.72;63.67;100007.28;6155233;23;20100;-92
2024/01/20 09:29:01;;;;;;;1.20;1.20;;;;;;;1.05;63.12;100006.63;6180374;23;20658;-91
2024/01/20 09:31:26;;;;;;;1.10;1.10;;;;;;;0.49;64.08;100006.16;6130811;23;20011;-94
2024/01/20 09:33:52;;;;;;;1.20;1.20;;;;;;;0.37;62.84;100006.75;6157429;23;20018;-93
2024/01/20 09:36:18;;;;;;;1.10;1.10;;;;;;;0.41;64.97;99998.38;6156234;23;20017;-92
2024/01/20 09:38:44;;;;;;;1.20;1.20;;;;;;;1.84;60.33;100002.00;6157285;23;20009;-92
2024/01/20 09:41:12;;;;;;;1.15;1.15;;;;;;;1.19;61.10;100005.19;6157747;23;20040;-93
2024/01/20 09:43:39;;;;;;;1.10;1.10;;;;;;;2.52;57.99;100000.53;6157433;23;20088;-94
2024/01/20 09:46:06;;;;;;;1.10;1.10;;;;;;;3.02;55.75;100001.97;6130159;23;20029;-91
2024/01/20 09:48:32;;;;;;;1.10;1.10;;;;;;;3.59;54.00;100006.34;6130088;23;20016;-95
2024/01/20 09:50:58;;;;;;;1.10;1.10;;;;;;;3.17;54.47;100020.72;6155313;23;20041;-92
2024/01/20 09:53:24;;;;;;;1.10;1.10;;;;;;;3.71;52.90;100009.03;6156486;23;20016;-95
2024/01/20 09:55:50;;;;;;;1.10;1.10;;;;;;;3.61;53.18;100012.69;6157210;23;20009;-93
2024/01/20 09:58:17;;;;;;;1.00;1.00;;;;;;;3.98;52.28;100007.56;6130939;23;20556;-90
2024/01/20 10:00:43;;;;;;;1.10;1.10;;;;;;;4.69;51.11;100019.88;6131442;23;20024;-90
2024/01/20 10:03:10;;;;;;;1.00;1.00;;;;;;;2.84;54.92;100026.84;6158156;23;20067;-91
2024/01/20 10:05:38;;;;;;;1.10;1.10;;;;;;;4.11;52.02;100011.22;6185867;23;20026;-91
2024/01/20 10:08:05;;;;;;;1.10;1.10;;;;;;;3.38;53.49;100028.44;6135097;23;20020;-91
2024/01/20 10:10:32;;;;;;;1.10;1.10;;;;;;;3.27;54.33;100032.91;6132064;23;20109;-93
2024/01/20 10:12:57;;;;;;;1.05;1.05;;;;;;;2.50;55.92;100039.03;6132614;23;20052;-94
2024/01/20 10:15:26;;;;;;;1.00;1.00;;;;;;;3.28;55.46;100029.44;6157971;23;20013;-93
2024/01/20 10:17:52;;;;;;;1.10;1.10;;;;;;;4.76;52.33;100023.91;6157220;23;20024;-93
2024/01/20 10:20:22;;;;;;;1.00;1.00;;;;;;;5.52;48.54;100021.44;6131892;23;20052;-93
2024/01/20 10:22:49;;;;;;;1.02;1.02;;;;;;;5.20;48.99;100027.09;6133569;23;20089;-92
2024/01/20 10:25:19;;;;;;;1.08;1.08;;;;;;;2.63;55.66;100040.91;6133199;23;20013;-92
2024/01/20 10:27:50;;;;;;;1.10;1.10;;;;;;;4.63;51.15;100025.66;6156734;23;20119;-91
2024/01/20 10:30:21;;;;;;;1.00;1.00;;;;;;;5.76;48.51;100013.34;6156089;23;20033;-91
2024/01/20 10:32:48;;;;;;;1.00;1.00;;;;;;;3.97;52.19;100009.28;6129234;23;20454;-90
2024/01/20 10:35:14;;;;;;;1.10;1.10;;;;;;;4.60;50.74;100006.03;6159112;23;20005;-92
2024/01/20 10:37:45;;;;;;;1.10;1.10;;;;;;;4.94;50.01;100003.19;6159953;23;20052;-93
2024/01/20 10:40:14;;;;;;;1.10;1.10;;;;;;;5.11;49.67;100005.28;6135780;23;20032;-92
2024/01/20 10:42:45;;;;;;;1.00;1.00;;;;;;;5.70;47.89;100008.56;6154484;23;20068;-93
2024/01/20 10:45:18;;;;;;;1.10;1.10;;;;;;;5.63;48.18;100008.94;6160418;23;20323;-92
2024/01/20 10:48:01;;;;;;;1.00;1.00;;;;;;;4.42;51.76;100004.69;6159492;23;20028;-92
2024/01/20 10:50:31;;;;;;;1.00;1.00;;;;;;;3.89;51.38;100013.06;6133600;23;20071;-91
2024/01/20 10:52:58;;;;;;;1.00;1.00;;;;;;;5.19;50.12;100006.75;6159705;23;20024;-90
2024/01/20 10:55:24;;;;;;;1.00;1.00;;;;;;;6.01;47.38;99995.69;6160918;23;20013;-89
2024/01/20 10:57:51;;;;;;;1.10;1.10;;;;;;;4.79;49.99;100001.28;6160307;23;20092;-91
2024/01/20 11:00:18;;;;;;;1.00;1.00;;;;;;;6.55;46.95;99991.28;6136751;23;20068;-91
2024/01/20 11:02:46;;;;;;;1.10;1.10;;;;;;;6.03;46.58;99988.75;6163112;23;20013;-92
2024/01/20 11:05:21;;;;;;;1.00;1.00;;;;;;;6.13;47.58;99995.56;6168961;23;20016;-91
2024/01/20 11:08:05;;;;;;;1.00;1.00;;;;;;;6.17;48.21;99993.22;6169847;23;20219;-90
2024/01/20 11:10:41;;;;;;;1.00;1.00;;;;;;;3.96;54.32;99993.31;6145683;23;20040;-91
2024/01/20 11:13:09;;;;;;;1.00;1.00;;;;;;;7.02;47.19;99973.09;6141550;23;20291;-92
2024/01/20 11:15:36;;;;;;;0.90;0.90;;;;;;;7.17;46.03;99965.19;6160399;23;20010;-91
2024/01/20 11:18:02;;;;;;;1.00;1.00;;;;;;;6.86;46.50;99979.19;6161053;23;20049;-92
2024/01/20 11:20:31;;;;;;;1.00;1.00;;;;;;;8.21;43.45;99966.16;6136059;23;20052;-92
2024/01/20 11:22:57;;;;;;;1.00;1.00;;;;;;;8.61;41.44;99966.72;6167654;23;20033;-91
2024/01/20 11:25:24;;;;;;;0.90;0.90;;;;;;;7.91;42.36;99970.59;6137457;23;20028;-91
2024/01/20 11:27:54;;;;;;;0.90;0.90;;;;;;;8.66;42.91;99967.88;6161060;23;20014;-92
2024/01/20 11:30:35;;;;;;;1.00;1.00;;;;;;;7.86;43.19;99958.78;6152304;23;20032;-93
2024/01/20 11:33:02;;;;;;;0.90;0.90;;;;;;;8.99;41.81;99957.28;6133457;23;20018;-92
2024/01/20 11:35:27;;;;;;;0.90;0.90;;;;;;;9.58;40.70;99956.00;6143511;23;20037;-92
2024/01/20 11:37:57;;;;;;;0.90;0.90;;;;;;;9.07;41.45;99953.31;6167838;23;20017;-92